createdAt,value
2023-08-08T00:01:31.262Z,2.03
2023-08-08T00:03:57.956Z,1.85
2023-08-08T00:06:24.468Z,2.05
2023-08-08T00:08:50.898Z,1.77
2023-08-08T00:11:17.330Z,1.80
2023-08-08T00:13:43.978Z,1.90
2023-08-08T00:16:11.029Z,1.90
2023-08-08T00:18:37.499Z,1.88
2023-08-08T00:21:03.980Z,1.45
2023-08-08T00:23:30.499Z,1.13
2023-08-08T00:25:57.135Z,1.20
2023-08-08T00:28:23.642Z,1.10
2023-08-08T00:30:50.296Z,1.33
2023-08-08T00:33:17.722Z,1.48
2023-08-08T00:35:45.789Z,1.77
2023-08-08T00:38:12.369Z,2.07
2023-08-08T00:40:38.821Z,1.93
2023-08-08T00:43:05.326Z,1.30
2023-08-08T00:45:32.005Z,0.75
2023-08-08T00:47:58.637Z,1.00
2023-08-08T00:50:25.261Z,0.97
2023-08-08T00:52:51.998Z,1.10
2023-08-08T00:55:18.683Z,1.30
2023-08-08T00:57:45.658Z,1.40
2023-08-08T01:00:12.875Z,0.70
2023-08-08T01:02:39.848Z,1.23
2023-08-08T01:05:07.634Z,1.63
2023-08-08T01:07:44.917Z,1.40
2023-08-08T01:10:23.614Z,1.10
2023-08-08T01:12:54.601Z,0.90
2023-08-08T01:15:22.514Z,1.20
2023-08-08T01:17:49.475Z,1.30
2023-08-08T01:20:18.030Z,1.38
2023-08-08T01:23:13.938Z,1.10
2023-08-08T01:25:42.006Z,0.70
2023-08-08T01:28:09.135Z,0.97
2023-08-08T01:30:35.805Z,1.08
2023-08-08T01:33:03.249Z,1.15
2023-08-08T01:35:33.343Z,0.90
2023-08-08T01:38:24.912Z,1.08
2023-08-08T01:40:51.872Z,1.20
2023-08-08T01:43:19.603Z,0.70
2023-08-08T01:45:46.246Z,1.00
2023-08-08T01:48:12.912Z,1.20
2023-08-08T01:50:39.576Z,1.13
2023-08-08T01:53:06.043Z,1.60
2023-08-08T01:55:32.779Z,1.20
2023-08-08T01:57:59.690Z,1.10
2023-08-08T02:00:26.284Z,1.30
2023-08-08T02:02:53.382Z,1.42
2023-08-08T02:05:20.062Z,1.63
2023-08-08T02:07:46.569Z,1.17
2023-08-08T02:10:12.994Z,1.20
2023-08-08T02:12:39.533Z,1.23
2023-08-08T02:15:07.015Z,1.05
2023-08-08T02:17:33.623Z,1.60
2023-08-08T02:20:00.195Z,1.38
2023-08-08T02:22:26.747Z,1.38
2023-08-08T02:24:53.297Z,1.40
2023-08-08T02:27:19.794Z,1.73
2023-08-08T02:29:46.226Z,1.50
2023-08-08T02:32:14.275Z,1.25
2023-08-08T02:34:40.750Z,1.67
2023-08-08T02:37:07.269Z,1.80
2023-08-08T02:39:33.717Z,1.55
2023-08-08T02:42:00.424Z,1.70
2023-08-08T02:44:27.085Z,1.38
2023-08-08T02:46:53.552Z,1.63
2023-08-08T02:49:19.940Z,1.70
2023-08-08T02:51:46.356Z,0.98
2023-08-08T02:54:12.797Z,1.40
2023-08-08T02:56:39.225Z,1.70
2023-08-08T02:59:05.623Z,1.38
2023-08-08T03:01:32.286Z,1.20
2023-08-08T03:03:59.296Z,1.30
2023-08-08T03:06:26.283Z,1.60
2023-08-08T03:08:52.776Z,1.23
2023-08-08T03:11:19.312Z,1.45
2023-08-08T03:13:45.823Z,1.77
2023-08-08T03:16:12.263Z,1.70
2023-08-08T03:18:38.999Z,1.57
2023-08-08T03:21:05.621Z,1.40
2023-08-08T03:23:32.285Z,2.25
2023-08-08T03:25:58.727Z,1.63
2023-08-08T03:28:25.709Z,2.20
2023-08-08T03:30:52.212Z,1.63
2023-08-08T03:33:18.657Z,1.77
2023-08-08T03:35:45.160Z,1.40
2023-08-08T03:38:11.717Z,1.77
2023-08-08T03:40:38.442Z,1.75
2023-08-08T03:43:05.184Z,1.30
2023-08-08T03:45:31.703Z,1.45
2023-08-08T03:47:58.134Z,1.75
2023-08-08T03:50:24.838Z,1.95
2023-08-08T03:52:51.263Z,2.33
2023-08-08T03:55:17.784Z,2.37
2023-08-08T03:57:44.665Z,2.08
2023-08-08T04:00:12.585Z,1.92
2023-08-08T04:02:39.564Z,1.88
2023-08-08T04:05:06.623Z,2.00
2023-08-08T04:07:33.090Z,1.97
2023-08-08T04:09:59.587Z,2.20
2023-08-08T04:12:26.113Z,2.28
2023-08-08T04:14:52.634Z,2.28
2023-08-08T04:17:21.541Z,1.73
2023-08-08T04:19:48.963Z,1.83
2023-08-08T04:22:16.845Z,1.80
2023-08-08T04:24:43.507Z,1.45
2023-08-08T04:27:10.126Z,1.95
2023-08-08T04:29:37.359Z,1.55
2023-08-08T04:32:04.247Z,1.43
2023-08-08T04:34:30.702Z,2.00
2023-08-08T04:36:57.150Z,1.90
2023-08-08T04:39:23.613Z,1.80
2023-08-08T04:41:50.072Z,1.73
2023-08-08T04:44:16.537Z,1.50
2023-08-08T04:46:43.007Z,1.77
2023-08-08T04:49:09.541Z,1.50
2023-08-08T04:51:36.110Z,1.80
2023-08-08T04:54:02.655Z,1.60
2023-08-08T04:56:30.583Z,1.90
2023-08-08T04:58:57.632Z,1.25
2023-08-08T05:01:24.073Z,1.92
2023-08-08T05:03:52.471Z,1.48
2023-08-08T05:06:20.545Z,1.25
2023-08-08T05:08:46.987Z,1.13
2023-08-08T05:11:13.657Z,1.40
2023-08-08T05:13:40.224Z,1.30
2023-08-08T05:16:07.474Z,1.85
2023-08-08T05:18:33.976Z,1.73
2023-08-08T05:21:00.525Z,1.57
2023-08-08T05:23:27.139Z,1.40
2023-08-08T05:25:53.557Z,1.38
2023-08-08T05:28:20.073Z,1.73
2023-08-08T05:30:46.617Z,1.50
2023-08-08T05:33:13.097Z,1.30
2023-08-08T05:35:39.528Z,1.45
2023-08-08T05:38:06.531Z,1.30
2023-08-08T05:40:36.276Z,1.20
2023-08-08T05:43:04.153Z,1.20
2023-08-08T05:45:30.702Z,1.00
2023-08-08T05:47:57.569Z,1.02
2023-08-08T05:50:24.218Z,0.90
2023-08-08T05:52:50.700Z,0.80
2023-08-08T05:55:17.333Z,1.20
2023-08-08T05:57:43.910Z,0.80
2023-08-08T06:00:12.475Z,0.93
2023-08-08T06:02:39.360Z,0.80
2023-08-08T06:05:06.501Z,0.70
2023-08-08T06:07:33.163Z,0.60
2023-08-08T06:09:59.655Z,0.67
2023-08-08T06:12:26.459Z,0.60
2023-08-08T06:14:52.883Z,0.70
2023-08-08T06:17:19.412Z,0.60
2023-08-08T06:19:46.396Z,0.50
2023-08-08T06:22:13.131Z,0.50
2023-08-08T06:24:40.313Z,0.40
2023-08-08T06:27:06.966Z,0.57
2023-08-08T06:29:33.484Z,0.52
2023-08-08T06:32:00.414Z,0.50
2023-08-08T06:34:27.266Z,0.47
2023-08-08T06:36:53.712Z,0.67
2023-08-08T06:39:22.329Z,0.30
2023-08-08T06:41:49.183Z,0.50
2023-08-08T06:44:15.791Z,0.40
2023-08-08T06:46:42.376Z,0.60
2023-08-08T06:49:10.045Z,0.40
2023-08-08T06:51:36.684Z,0.52
2023-08-08T06:54:04.129Z,0.50
2023-08-08T06:56:30.678Z,1.10
2023-08-08T06:58:57.130Z,0.60
2023-08-08T07:01:23.661Z,0.93
2023-08-08T07:03:50.195Z,1.23
2023-08-08T07:06:18.958Z,0.40
2023-08-08T07:08:45.467Z,0.47
2023-08-08T07:11:12.141Z,0.40
2023-08-08T07:13:38.971Z,0.47
2023-08-08T07:16:05.666Z,1.60
2023-08-08T07:18:32.264Z,0.60
2023-08-08T07:20:58.886Z,0.50
2023-08-08T07:23:25.767Z,0.40
2023-08-08T07:25:52.484Z,0.25
2023-08-08T07:28:19.260Z,0.50
2023-08-08T07:30:45.896Z,0.38
2023-08-08T07:33:12.441Z,0.25
2023-08-08T07:35:39.062Z,0.60
2023-08-08T07:38:05.538Z,0.10
2023-08-08T07:40:32.257Z,0.35
2023-08-08T07:42:58.710Z,0.20
2023-08-08T07:45:25.279Z,0.20
2023-08-08T07:47:51.762Z,0.30
2023-08-08T07:50:18.234Z,0.20
2023-08-08T07:52:44.723Z,0.30
2023-08-08T07:55:11.309Z,0.22
2023-08-08T07:57:37.803Z,0.43
2023-08-08T08:00:14.962Z,0.30
2023-08-08T08:02:43.746Z,0.30
2023-08-08T08:05:10.737Z,0.25
2023-08-08T08:07:38.843Z,0.40
2023-08-08T08:10:08.633Z,0.30
2023-08-08T08:12:36.098Z,0.30
2023-08-08T08:15:03.460Z,0.50
2023-08-08T08:17:30.025Z,0.30
2023-08-08T08:19:56.678Z,0.20
2023-08-08T08:22:23.223Z,0.25
2023-08-08T08:24:49.839Z,0.45
2023-08-08T08:27:16.506Z,0.30
2023-08-08T08:29:43.019Z,0.55
2023-08-08T08:32:09.940Z,0.20
2023-08-08T08:34:36.400Z,0.25
2023-08-08T08:37:03.326Z,0.28
2023-08-08T08:39:29.990Z,0.30
2023-08-08T08:42:03.029Z,0.25
2023-08-08T08:44:32.092Z,0.20
2023-08-08T08:47:02.597Z,0.20
2023-08-08T08:49:31.866Z,0.30
2023-08-08T08:52:06.078Z,0.57
2023-08-08T08:54:34.239Z,0.28
2023-08-08T08:57:01.231Z,0.28
2023-08-08T08:59:27.926Z,0.50
2023-08-08T09:01:54.586Z,0.20
2023-08-08T09:04:22.620Z,0.20
2023-08-08T09:06:50.981Z,0.20
2023-08-08T09:09:18.369Z,0.30
2023-08-08T09:11:48.493Z,0.20
2023-08-08T09:14:20.272Z,0.30
2023-08-08T09:16:48.153Z,0.20
2023-08-08T09:19:16.025Z,0.20
2023-08-08T09:21:42.487Z,0.20
2023-08-08T09:24:09.101Z,0.20
2023-08-08T09:26:35.902Z,0.10
2023-08-08T09:29:03.779Z,0.20
2023-08-08T09:31:31.299Z,0.20
2023-08-08T09:33:59.767Z,0.30
2023-08-08T09:36:26.992Z,0.20
2023-08-08T09:38:57.542Z,0.30
2023-08-08T09:41:24.681Z,0.40
2023-08-08T09:43:53.141Z,0.20
2023-08-08T09:46:20.649Z,0.20
2023-08-08T09:48:47.625Z,0.30
2023-08-08T09:51:14.658Z,0.30
2023-08-08T09:53:41.979Z,0.20
2023-08-08T09:56:09.279Z,0.30
2023-08-08T09:58:35.731Z,0.35
2023-08-08T10:01:02.236Z,0.20
2023-08-08T10:03:29.654Z,0.20
2023-08-08T10:05:56.136Z,0.20
2023-08-08T10:08:23.062Z,0.20
2023-08-08T10:10:51.612Z,0.20
2023-08-08T10:13:27.372Z,0.30
2023-08-08T10:15:55.209Z,0.22
2023-08-08T10:18:25.685Z,0.38
2023-08-08T10:20:54.497Z,0.57
2023-08-08T10:23:21.772Z,0.30
2023-08-08T10:25:51.157Z,0.32
2023-08-08T10:28:26.703Z,0.40
2023-08-08T10:30:59.354Z,0.20
2023-08-08T10:33:43.057Z,0.20
2023-08-08T10:36:10.770Z,0.30
2023-08-08T10:38:44.977Z,0.20
2023-08-08T10:41:16.968Z,0.40
2023-08-08T10:43:54.965Z,0.20
2023-08-08T10:46:42.624Z,0.30
2023-08-08T10:49:09.244Z,0.30
2023-08-08T10:51:45.653Z,0.30
2023-08-08T10:54:30.285Z,0.25
2023-08-08T10:56:59.007Z,0.20
2023-08-08T10:59:37.728Z,0.20
2023-08-08T11:02:05.112Z,0.43
2023-08-08T11:04:33.654Z,0.20
2023-08-08T11:07:00.319Z,0.20
2023-08-08T11:09:27.456Z,0.20
2023-08-08T11:11:54.145Z,0.20
2023-08-08T11:14:22.650Z,0.20
2023-08-08T11:16:51.252Z,0.32
2023-08-08T11:19:22.021Z,0.30
2023-08-08T11:21:49.348Z,0.20
2023-08-08T11:24:16.851Z,0.20
2023-08-08T11:26:46.444Z,0.30
2023-08-08T11:29:13.145Z,0.30
2023-08-08T11:31:40.291Z,0.30
2023-08-08T11:34:07.233Z,0.20
2023-08-08T11:36:35.533Z,0.30
2023-08-08T11:39:09.451Z,0.20
2023-08-08T11:41:37.730Z,0.20
2023-08-08T11:44:05.705Z,0.20
2023-08-08T11:46:32.195Z,0.20
2023-08-08T11:49:07.336Z,0.20
2023-08-08T11:51:35.557Z,0.20
2023-08-08T11:54:04.159Z,0.20
2023-08-08T11:56:34.315Z,0.10
2023-08-08T11:59:01.043Z,0.30
2023-08-08T12:01:27.996Z,0.13
2023-08-08T12:03:55.440Z,0.40
2023-08-08T12:06:22.703Z,0.25
2023-08-08T12:08:49.719Z,0.20
2023-08-08T12:11:17.013Z,0.20
2023-08-08T12:13:45.075Z,0.22
2023-08-08T12:16:17.330Z,0.20
2023-08-08T12:18:45.782Z,0.25
2023-08-08T12:21:12.398Z,0.30
2023-08-08T12:23:38.932Z,0.40
2023-08-08T12:26:06.535Z,0.20
2023-08-08T12:28:33.371Z,0.20
2023-08-08T12:31:00.411Z,0.25
2023-08-08T12:33:26.931Z,0.30
2023-08-08T12:35:53.955Z,0.47
2023-08-08T12:38:20.554Z,0.28
2023-08-08T12:40:47.225Z,0.20
2023-08-08T12:43:15.160Z,0.30
2023-08-08T12:45:41.683Z,0.20
2023-08-08T12:48:08.241Z,0.20
2023-08-08T12:50:34.755Z,0.35
2023-08-08T12:53:01.226Z,0.38
2023-08-08T12:55:27.666Z,0.30
2023-08-08T12:57:54.287Z,0.30
2023-08-08T13:00:20.828Z,0.28
2023-08-08T13:02:47.480Z,0.32
2023-08-08T13:05:14.034Z,0.38
2023-08-08T13:07:40.693Z,0.20
2023-08-08T13:10:07.652Z,0.20
2023-08-08T13:12:34.565Z,0.20
2023-08-08T13:15:01.080Z,0.20
2023-08-08T13:17:27.537Z,0.20
2023-08-08T13:19:54.168Z,0.30
2023-08-08T13:22:20.753Z,0.20
2023-08-08T13:24:47.370Z,0.30
2023-08-08T13:27:13.924Z,0.20
2023-08-08T13:29:40.497Z,0.20
2023-08-08T13:32:07.213Z,0.30
2023-08-08T13:34:33.759Z,0.30
2023-08-08T13:37:00.252Z,0.30
2023-08-08T13:39:26.748Z,0.22
2023-08-08T13:41:53.559Z,0.30
2023-08-08T13:44:20.245Z,0.20
2023-08-08T13:46:46.842Z,0.20
2023-08-08T13:49:13.708Z,0.30
2023-08-08T13:51:41.694Z,0.52
2023-08-08T13:54:09.259Z,0.15
2023-08-08T13:56:35.680Z,0.30
2023-08-08T13:59:02.389Z,0.30
2023-08-08T14:01:28.888Z,0.40
2023-08-08T14:03:55.422Z,0.32
2023-08-08T14:06:21.892Z,0.30
2023-08-08T14:08:49.659Z,0.30
2023-08-08T14:11:16.364Z,0.30
2023-08-08T14:13:42.774Z,0.30
2023-08-08T14:16:09.324Z,0.30
2023-08-08T14:18:35.974Z,0.30
2023-08-08T14:21:05.538Z,0.20
2023-08-08T14:23:32.535Z,0.30
2023-08-08T14:25:58.993Z,0.20
2023-08-08T14:28:26.749Z,0.30
2023-08-08T14:30:55.306Z,0.30
2023-08-08T14:33:21.888Z,0.20
2023-08-08T14:35:48.573Z,0.30
2023-08-08T14:38:15.009Z,0.20
2023-08-08T14:40:41.526Z,0.25
2023-08-08T14:43:11.325Z,0.20
2023-08-08T14:45:42.001Z,0.20
2023-08-08T14:48:08.551Z,0.20
2023-08-08T14:50:35.485Z,0.20
2023-08-08T14:53:02.044Z,0.20
2023-08-08T14:55:28.786Z,0.30
2023-08-08T14:57:55.226Z,0.20
2023-08-08T15:00:21.829Z,0.20
2023-08-08T15:02:48.328Z,0.50
2023-08-08T15:05:14.755Z,0.30
2023-08-08T15:07:41.888Z,0.30
2023-08-08T15:10:08.899Z,0.25
2023-08-08T15:12:36.213Z,0.23
2023-08-08T15:15:04.775Z,0.30
2023-08-08T15:17:31.357Z,0.20
2023-08-08T15:19:57.851Z,0.30
2023-08-08T15:22:24.432Z,0.20
2023-08-08T15:24:50.928Z,0.20
2023-08-08T15:27:17.517Z,0.20
2023-08-08T15:29:44.564Z,0.40
2023-08-08T15:32:11.104Z,0.30
2023-08-08T15:34:38.332Z,0.57
2023-08-08T15:37:05.046Z,0.30
2023-08-08T15:39:31.475Z,0.30
2023-08-08T15:41:57.942Z,0.43
2023-08-08T15:44:24.431Z,0.30
2023-08-08T15:46:50.930Z,0.40
2023-08-08T15:49:17.435Z,0.33
2023-08-08T15:51:43.915Z,0.30
2023-08-08T15:54:10.500Z,0.40
2023-08-08T15:56:39.200Z,0.50
2023-08-08T15:59:06.881Z,0.45
2023-08-08T16:01:33.843Z,0.50
2023-08-08T16:04:00.347Z,0.63
2023-08-08T16:06:27.423Z,0.60
2023-08-08T16:08:54.008Z,0.55
2023-08-08T16:11:20.425Z,0.40
2023-08-08T16:13:47.254Z,0.37
2023-08-08T16:16:13.869Z,0.50
2023-08-08T16:18:40.376Z,0.40
2023-08-08T16:21:06.865Z,0.40
2023-08-08T16:23:33.484Z,0.40
2023-08-08T16:26:00.035Z,0.40
2023-08-08T16:28:27.257Z,0.60
2023-08-08T16:30:53.991Z,0.38
2023-08-08T16:33:20.640Z,0.40
2023-08-08T16:35:47.129Z,0.40
2023-08-08T16:38:13.888Z,0.30
2023-08-08T16:40:40.323Z,0.30
2023-08-08T16:43:06.840Z,0.40
2023-08-08T16:45:33.374Z,0.55
2023-08-08T16:47:59.822Z,0.47
2023-08-08T16:50:26.236Z,0.37
2023-08-08T16:52:52.691Z,0.32
2023-08-08T16:55:19.128Z,0.30
2023-08-08T16:57:46.112Z,0.35
2023-08-08T17:00:15.475Z,0.32
2023-08-08T17:02:42.417Z,0.50
2023-08-08T17:05:09.196Z,0.38
2023-08-08T17:07:35.830Z,0.35
2023-08-08T17:10:02.418Z,0.40
2023-08-08T17:12:29.122Z,0.50
2023-08-08T17:14:55.795Z,0.40
2023-08-08T17:17:22.335Z,0.35
2023-08-08T17:19:48.832Z,0.50
2023-08-08T17:22:15.489Z,0.40
2023-08-08T17:24:42.148Z,0.20
2023-08-08T17:27:08.763Z,0.30
2023-08-08T17:29:35.301Z,0.30
2023-08-08T17:32:03.327Z,0.30
2023-08-08T17:34:30.106Z,0.30
2023-08-08T17:36:57.131Z,0.30
2023-08-08T17:39:23.717Z,0.40
2023-08-08T17:41:50.250Z,0.65
2023-08-08T17:44:16.723Z,0.43
2023-08-08T17:46:43.227Z,0.57
2023-08-08T17:49:09.767Z,0.57
2023-08-08T17:51:36.235Z,0.33
2023-08-08T17:54:02.713Z,0.40
2023-08-08T17:56:29.351Z,0.70
2023-08-08T17:58:55.928Z,0.50
2023-08-08T18:01:22.522Z,0.60
2023-08-08T18:03:49.641Z,0.60
2023-08-08T18:06:16.095Z,0.55
2023-08-08T18:08:42.832Z,1.05
2023-08-08T18:11:10.777Z,0.60
2023-08-08T18:13:37.466Z,0.43
2023-08-08T18:16:04.768Z,0.70
2023-08-08T18:18:31.349Z,0.60
2023-08-08T18:20:57.870Z,1.00
2023-08-08T18:23:24.423Z,0.70
2023-08-08T18:25:51.139Z,0.50
2023-08-08T18:28:19.096Z,0.57
2023-08-08T18:30:45.662Z,0.40
2023-08-08T18:33:13.398Z,0.60
2023-08-08T18:35:40.006Z,0.68
2023-08-08T18:38:06.600Z,0.60
2023-08-08T18:40:33.074Z,0.50
2023-08-08T18:43:00.270Z,0.60
2023-08-08T18:45:27.119Z,0.52
2023-08-08T18:47:53.689Z,0.40
2023-08-08T18:50:20.717Z,0.63
2023-08-08T18:52:48.295Z,0.40
2023-08-08T18:55:16.476Z,0.70
2023-08-08T18:57:43.037Z,0.60
2023-08-08T19:00:09.967Z,0.60
2023-08-08T19:02:36.493Z,0.70
2023-08-08T19:05:03.089Z,0.67
2023-08-08T19:07:29.627Z,0.70
2023-08-08T19:09:56.096Z,0.60
2023-08-08T19:12:22.716Z,0.70
2023-08-08T19:14:49.307Z,0.55
2023-08-08T19:17:15.760Z,0.73
2023-08-08T19:19:42.248Z,0.60
2023-08-08T19:22:08.704Z,0.90
2023-08-08T19:24:35.198Z,0.73
2023-08-08T19:27:01.668Z,0.70
2023-08-08T19:29:28.175Z,0.70
2023-08-08T19:31:54.838Z,0.88
2023-08-08T19:34:22.792Z,0.82
2023-08-08T19:36:49.341Z,0.68
2023-08-08T19:39:15.849Z,0.80
2023-08-08T19:41:42.327Z,0.70
2023-08-08T19:44:08.824Z,0.77
2023-08-08T19:46:35.668Z,0.70
2023-08-08T19:49:02.308Z,0.85
2023-08-08T19:51:29.161Z,0.80
2023-08-08T19:53:56.884Z,0.87
2023-08-08T19:56:24.961Z,1.20
2023-08-08T19:58:52.308Z,1.00
2023-08-08T20:01:18.970Z,1.10
2023-08-08T20:03:45.674Z,1.05
2023-08-08T20:06:12.360Z,1.20
2023-08-08T20:08:39.013Z,1.05
2023-08-08T20:11:06.980Z,1.10
2023-08-08T20:13:33.825Z,1.02
2023-08-08T20:16:00.436Z,0.88
2023-08-08T20:18:26.971Z,0.70
2023-08-08T20:20:53.921Z,0.82
2023-08-08T20:23:20.466Z,1.00
2023-08-08T20:25:47.141Z,0.90
2023-08-08T20:28:13.650Z,0.80
2023-08-08T20:30:41.978Z,1.30
2023-08-08T20:33:09.969Z,1.13
2023-08-08T20:35:36.452Z,1.13
2023-08-08T20:38:03.231Z,1.33
2023-08-08T20:40:29.714Z,1.45
2023-08-08T20:42:57.115Z,1.50
2023-08-08T20:45:23.654Z,1.42
2023-08-08T20:47:50.366Z,1.80
2023-08-08T20:50:16.842Z,2.10
2023-08-08T20:52:44.734Z,2.17
2023-08-08T20:55:11.376Z,1.60
2023-08-08T20:57:37.902Z,1.73
2023-08-08T21:00:04.983Z,2.38
2023-08-08T21:02:31.735Z,1.80
2023-08-08T21:04:58.208Z,1.98
2023-08-08T21:07:25.326Z,1.63
2023-08-08T21:09:52.019Z,1.77
2023-08-08T21:12:18.601Z,1.35
2023-08-08T21:14:45.098Z,1.20
2023-08-08T21:17:11.670Z,1.23
2023-08-08T21:19:38.242Z,1.40
2023-08-08T21:22:04.880Z,1.67
2023-08-08T21:24:32.471Z,1.33
2023-08-08T21:26:59.251Z,1.63
2023-08-08T21:29:25.794Z,1.70
2023-08-08T21:31:52.432Z,1.97
2023-08-08T21:34:18.877Z,1.83
2023-08-08T21:36:45.456Z,2.00
2023-08-08T21:39:11.861Z,2.28
2023-08-08T21:41:38.309Z,1.52
2023-08-08T21:44:05.239Z,1.90
2023-08-08T21:46:31.774Z,1.90
2023-08-08T21:48:59.404Z,2.08
2023-08-08T21:51:25.893Z,1.50
2023-08-08T21:53:52.395Z,1.90
2023-08-08T21:56:18.964Z,1.50
2023-08-08T21:58:45.407Z,1.33
2023-08-08T22:01:12.050Z,1.60
2023-08-08T22:03:38.502Z,1.50
2023-08-08T22:06:05.161Z,1.42
2023-08-08T22:08:31.920Z,1.50
2023-08-08T22:10:58.542Z,1.40
2023-08-08T22:13:25.144Z,1.58
2023-08-08T22:15:51.705Z,1.38
2023-08-08T22:18:19.824Z,1.38
2023-08-08T22:20:47.636Z,1.43
2023-08-08T22:23:20.450Z,1.10
2023-08-08T22:25:49.827Z,1.05
2023-08-08T22:28:17.224Z,1.10
2023-08-08T22:30:44.016Z,1.40
2023-08-08T22:33:10.641Z,1.30
2023-08-08T22:35:37.130Z,0.90
2023-08-08T22:38:03.954Z,1.10
2023-08-08T22:40:30.495Z,1.00
2023-08-08T22:42:57.251Z,1.05
2023-08-08T22:45:23.904Z,1.13
2023-08-08T22:47:50.395Z,1.40
2023-08-08T22:50:16.999Z,1.23
2023-08-08T22:52:43.520Z,1.55
2023-08-08T22:55:10.244Z,1.35
2023-08-08T22:57:37.271Z,1.93
2023-08-08T23:00:07.304Z,1.50
2023-08-08T23:02:34.954Z,1.63
2023-08-08T23:05:01.824Z,1.48
2023-08-08T23:07:28.353Z,2.08
2023-08-08T23:09:55.099Z,1.73
2023-08-08T23:12:25.587Z,1.67
2023-08-08T23:14:52.514Z,2.00
2023-08-08T23:17:26.868Z,2.08
2023-08-08T23:19:58.295Z,2.17
2023-08-08T23:22:27.303Z,2.20
2023-08-08T23:24:58.123Z,1.90
2023-08-08T23:27:25.615Z,2.47
2023-08-08T23:29:52.336Z,2.33
2023-08-08T23:32:36.947Z,2.67
2023-08-08T23:35:07.173Z,2.57
2023-08-08T23:37:35.286Z,2.42
2023-08-08T23:40:05.973Z,3.58
2023-08-08T23:42:43.996Z,3.63
2023-08-08T23:45:13.583Z,4.25
2023-08-08T23:47:47.982Z,4.80
2023-08-08T23:50:16.252Z,4.47
2023-08-08T23:52:54.475Z,4.10
2023-08-08T23:55:21.902Z,4.63
2023-08-08T23:57:48.689Z,4.75
